Arcadia, Ohio
Current Conditions -  °F | °C
As of 7:53 AM on Thursday 18 Dec 2014 (Local Time) from KFDY Reporting Station
Overcast Overcast  
Wind Chill: 22°   Ceiling: 1900
Heat Index: 29°   Visibility: 10mi
Dew Point: 22°   Wind: 7mph
Humidity: 75%   Direction: 260°W
Pressure: 30.21"   Gusts: NA
Location:  41.11°N, 83.52°W
Report Text: KFDY 181253Z AUTO 26006KT 10SM OVC019 M02/M06 A3021 RMK AO2 SLP237 T10171056
Loading
Personal Weather Stations






























Interactive Weather Map New forecast layout! Learn more

10-Day Weather Forecast

Advertisements
Track Severe Weather on mobile